sensor_id;sensor_type;location;lat;lon;timestamp;temperature;humidity
68912;SHT31;55953;51.650;-0.522;2023-02-15T00:00:13;1.20;85.39
68912;SHT31;55953;51.650;-0.522;2023-02-15T00:03:01;1.21;85.30
68912;SHT31;55953;51.650;-0.522;2023-02-15T00:05:30;1.23;85.47
68912;SHT31;55953;51.650;-0.522;2023-02-15T00:07:58;1.26;85.31
68912;SHT31;55953;51.650;-0.522;2023-02-15T00:10:26;1.25;85.16
68912;SHT31;55953;51.650;-0.522;2023-02-15T00:12:54;1.28;85.22
68912;SHT31;55953;51.650;-0.522;2023-02-15T00:15:22;1.31;85.08
68912;SHT31;55953;51.650;-0.522;2023-02-15T00:17:50;1.25;84.93
68912;SHT31;55953;51.650;-0.522;2023-02-15T00:20:17;1.19;85.18
68912;SHT31;55953;51.650;-0.522;2023-02-15T00:22:46;1.15;85.40
68912;SHT31;55953;51.650;-0.522;2023-02-15T00:25:14;1.17;85.66
68912;SHT31;55953;51.650;-0.522;2023-02-15T00:27:42;1.24;85.78
68912;SHT31;55953;51.650;-0.522;2023-02-15T00:30:10;1.27;85.48
68912;SHT31;55953;51.650;-0.522;2023-02-15T00:32:39;1.22;85.56
68912;SHT31;55953;51.650;-0.522;2023-02-15T00:35:07;1.26;85.70
68912;SHT31;55953;51.650;-0.522;2023-02-15T00:37:36;1.34;85.40
68912;SHT31;55953;51.650;-0.522;2023-02-15T00:40:04;1.30;84.95
68912;SHT31;55953;51.650;-0.522;2023-02-15T00:42:33;1.24;85.12
68912;SHT31;55953;51.650;-0.522;2023-02-15T00:45:01;1.19;85.40
68912;SHT31;55953;51.650;-0.522;2023-02-15T00:47:29;1.19;85.64
68912;SHT31;55953;51.650;-0.522;2023-02-15T00:49:57;1.24;85.71
68912;SHT31;55953;51.650;-0.522;2023-02-15T00:52:25;1.25;85.60
68912;SHT31;55953;51.650;-0.522;2023-02-15T00:54:53;1.24;85.67
68912;SHT31;55953;51.650;-0.522;2023-02-15T00:57:21;1.26;85.74
68912;SHT31;55953;51.650;-0.522;2023-02-15T00:59:48;1.24;85.43
68912;SHT31;55953;51.650;-0.522;2023-02-15T01:02:17;1.21;85.45
68912;SHT31;55953;51.650;-0.522;2023-02-15T01:04:46;1.22;85.50
68912;SHT31;55953;51.650;-0.522;2023-02-15T01:07:16;1.24;85.60
68912;SHT31;55953;51.650;-0.522;2023-02-15T01:09:44;1.24;85.64
68912;SHT31;55953;51.650;-0.522;2023-02-15T01:12:11;1.26;85.59
68912;SHT31;55953;51.650;-0.522;2023-02-15T01:14:39;1.29;85.65
68912;SHT31;55953;51.650;-0.522;2023-02-15T01:17:07;1.32;85.46
68912;SHT31;55953;51.650;-0.522;2023-02-15T01:19:35;1.28;85.31
68912;SHT31;55953;51.650;-0.522;2023-02-15T01:22:03;1.27;85.46
68912;SHT31;55953;51.650;-0.522;2023-02-15T01:24:34;1.22;85.34
68912;SHT31;55953;51.650;-0.522;2023-02-15T01:27:02;1.26;85.49
68912;SHT31;55953;51.650;-0.522;2023-02-15T01:29:30;1.36;85.57
68912;SHT31;55953;51.650;-0.522;2023-02-15T01:31:58;1.42;85.31
68912;SHT31;55953;51.650;-0.522;2023-02-15T01:34:26;1.41;85.18
68912;SHT31;55953;51.650;-0.522;2023-02-15T01:36:54;1.42;85.15
68912;SHT31;55953;51.650;-0.522;2023-02-15T01:39:22;1.43;85.22
68912;SHT31;55953;51.650;-0.522;2023-02-15T01:41:50;1.44;84.93
68912;SHT31;55953;51.650;-0.522;2023-02-15T01:47:29;1.34;84.84
68912;SHT31;55953;51.650;-0.522;2023-02-15T01:53:19;1.38;84.88
68912;SHT31;55953;51.650;-0.522;2023-02-15T01:56:00;1.35;84.75
68912;SHT31;55953;51.650;-0.522;2023-02-15T01:58:35;1.37;84.88
68912;SHT31;55953;51.650;-0.522;2023-02-15T02:01:04;1.35;84.81
68912;SHT31;55953;51.650;-0.522;2023-02-15T02:03:42;1.32;84.88
68912;SHT31;55953;51.650;-0.522;2023-02-15T02:06:13;1.28;84.84
68912;SHT31;55953;51.650;-0.522;2023-02-15T02:08:42;1.23;85.01
68912;SHT31;55953;51.650;-0.522;2023-02-15T02:11:11;1.25;85.04
68912;SHT31;55953;51.650;-0.522;2023-02-15T02:13:42;1.26;84.78
68912;SHT31;55953;51.650;-0.522;2023-02-15T02:37:58;1.32;84.64
68912;SHT31;55953;51.650;-0.522;2023-02-15T02:46:48;1.15;84.76
68912;SHT31;55953;51.650;-0.522;2023-02-15T02:52:05;1.00;85.05
68912;SHT31;55953;51.650;-0.522;2023-02-15T02:54:56;0.85;84.99
68912;SHT31;55953;51.650;-0.522;2023-02-15T02:57:24;0.85;85.17
68912;SHT31;55953;51.650;-0.522;2023-02-15T02:59:55;0.74;84.85
68912;SHT31;55953;51.650;-0.522;2023-02-15T03:02:32;0.69;85.12
68912;SHT31;55953;51.650;-0.522;2023-02-15T03:05:13;0.67;85.18
68912;SHT31;55953;51.650;-0.522;2023-02-15T03:07:47;0.75;85.32
68912;SHT31;55953;51.650;-0.522;2023-02-15T03:10:20;0.86;85.26
68912;SHT31;55953;51.650;-0.522;2023-02-15T03:12:52;0.84;85.00
68912;SHT31;55953;51.650;-0.522;2023-02-15T03:15:22;0.77;85.01
68912;SHT31;55953;51.650;-0.522;2023-02-15T03:18:16;0.81;84.96
68912;SHT31;55953;51.650;-0.522;2023-02-15T03:20:49;0.80;84.90
68912;SHT31;55953;51.650;-0.522;2023-02-15T03:23:21;0.81;84.96
68912;SHT31;55953;51.650;-0.522;2023-02-15T03:25:52;0.75;84.94
68912;SHT31;55953;51.650;-0.522;2023-02-15T03:31:12;0.61;85.01
68912;SHT31;55953;51.650;-0.522;2023-02-15T03:33:55;0.64;85.32
68912;SHT31;55953;51.650;-0.522;2023-02-15T03:39:44;0.77;85.09
68912;SHT31;55953;51.650;-0.522;2023-02-15T03:43:00;0.73;85.14
68912;SHT31;55953;51.650;-0.522;2023-02-15T03:49:11;0.93;85.00
68912;SHT31;55953;51.650;-0.522;2023-02-15T03:51:50;0.93;85.09
68912;SHT31;55953;51.650;-0.522;2023-02-15T03:54:27;0.85;85.01
68912;SHT31;55953;51.650;-0.522;2023-02-15T04:00:21;0.82;85.09
68912;SHT31;55953;51.650;-0.522;2023-02-15T04:05:43;0.69;85.24
68912;SHT31;55953;51.650;-0.522;2023-02-15T04:08:12;0.69;85.45
68912;SHT31;55953;51.650;-0.522;2023-02-15T04:10:40;0.67;85.26
68912;SHT31;55953;51.650;-0.522;2023-02-15T04:13:24;0.67;85.37
68912;SHT31;55953;51.650;-0.522;2023-02-15T04:15:59;0.70;85.30
68912;SHT31;55953;51.650;-0.522;2023-02-15T04:18:37;0.81;85.31
68912;SHT31;55953;51.650;-0.522;2023-02-15T04:21:27;0.85;85.02
68912;SHT31;55953;51.650;-0.522;2023-02-15T04:24:16;0.89;85.16
68912;SHT31;55953;51.650;-0.522;2023-02-15T04:27:04;0.81;84.97
68912;SHT31;55953;51.650;-0.522;2023-02-15T04:29:33;0.80;85.20
68912;SHT31;55953;51.650;-0.522;2023-02-15T04:32:01;0.79;85.18
68912;SHT31;55953;51.650;-0.522;2023-02-15T04:34:29;0.84;85.29
68912;SHT31;55953;51.650;-0.522;2023-02-15T04:36:57;0.85;85.11
68912;SHT31;55953;51.650;-0.522;2023-02-15T04:39:25;0.82;85.09
68912;SHT31;55953;51.650;-0.522;2023-02-15T04:41:53;0.86;85.40
68912;SHT31;55953;51.650;-0.522;2023-02-15T04:44:21;0.83;85.19
68912;SHT31;55953;51.650;-0.522;2023-02-15T04:46:49;0.79;84.95
68912;SHT31;55953;51.650;-0.522;2023-02-15T04:49:17;0.75;84.76
68912;SHT31;55953;51.650;-0.522;2023-02-15T04:51:44;0.68;84.63
68912;SHT31;55953;51.650;-0.522;2023-02-15T04:54:12;0.63;84.73
68912;SHT31;55953;51.650;-0.522;2023-02-15T04:56:40;0.68;84.87
68912;SHT31;55953;51.650;-0.522;2023-02-15T04:59:10;0.74;84.87
68912;SHT31;55953;51.650;-0.522;2023-02-15T05:01:38;0.80;84.85
68912;SHT31;55953;51.650;-0.522;2023-02-15T05:04:06;0.80;84.71
68912;SHT31;55953;51.650;-0.522;2023-02-15T05:06:35;0.76;84.85
68912;SHT31;55953;51.650;-0.522;2023-02-15T05:09:03;0.80;84.78
68912;SHT31;55953;51.650;-0.522;2023-02-15T05:11:31;0.80;84.62
68912;SHT31;55953;51.650;-0.522;2023-02-15T05:13:58;0.81;84.77
68912;SHT31;55953;51.650;-0.522;2023-02-15T05:16:26;0.74;84.58
68912;SHT31;55953;51.650;-0.522;2023-02-15T05:18:55;0.65;84.57
68912;SHT31;55953;51.650;-0.522;2023-02-15T05:21:23;0.60;84.93
68912;SHT31;55953;51.650;-0.522;2023-02-15T05:23:51;0.58;85.10
68912;SHT31;55953;51.650;-0.522;2023-02-15T05:26:20;0.55;85.04
68912;SHT31;55953;51.650;-0.522;2023-02-15T05:29:09;0.52;85.09
68912;SHT31;55953;51.650;-0.522;2023-02-15T05:31:38;0.60;85.23
68912;SHT31;55953;51.650;-0.522;2023-02-15T05:34:06;0.64;85.08
68912;SHT31;55953;51.650;-0.522;2023-02-15T05:36:34;0.69;85.31
68912;SHT31;55953;51.650;-0.522;2023-02-15T05:39:02;0.73;85.33
68912;SHT31;55953;51.650;-0.522;2023-02-15T05:41:33;0.70;85.07
68912;SHT31;55953;51.650;-0.522;2023-02-15T05:44:01;0.69;85.13
68912;SHT31;55953;51.650;-0.522;2023-02-15T05:46:28;0.68;85.17
68912;SHT31;55953;51.650;-0.522;2023-02-15T05:48:56;0.72;85.44
68912;SHT31;55953;51.650;-0.522;2023-02-15T05:51:24;0.79;85.52
68912;SHT31;55953;51.650;-0.522;2023-02-15T05:53:52;0.89;85.36
68912;SHT31;55953;51.650;-0.522;2023-02-15T05:56:20;0.99;85.27
68912;SHT31;55953;51.650;-0.522;2023-02-15T05:58:49;0.99;85.01
68912;SHT31;55953;51.650;-0.522;2023-02-15T06:01:17;0.93;84.84
68912;SHT31;55953;51.650;-0.522;2023-02-15T06:03:48;0.97;85.02
68912;SHT31;55953;51.650;-0.522;2023-02-15T06:06:16;1.07;85.05
68912;SHT31;55953;51.650;-0.522;2023-02-15T06:08:45;1.06;84.63
68912;SHT31;55953;51.650;-0.522;2023-02-15T06:11:13;1.02;84.62
68912;SHT31;55953;51.650;-0.522;2023-02-15T06:13:41;0.98;84.64
68912;SHT31;55953;51.650;-0.522;2023-02-15T06:16:09;0.90;84.65
68912;SHT31;55953;51.650;-0.522;2023-02-15T06:18:37;0.90;84.72
68912;SHT31;55953;51.650;-0.522;2023-02-15T06:21:05;0.92;84.70
68912;SHT31;55953;51.650;-0.522;2023-02-15T06:23:32;1.01;84.69
68912;SHT31;55953;51.650;-0.522;2023-02-15T06:26:00;1.06;84.55
68912;SHT31;55953;51.650;-0.522;2023-02-15T06:28:28;1.18;84.79
68912;SHT31;55953;51.650;-0.522;2023-02-15T06:30:57;1.23;84.48
68912;SHT31;55953;51.650;-0.522;2023-02-15T06:33:25;1.20;84.24
68912;SHT31;55953;51.650;-0.522;2023-02-15T06:35:53;1.18;84.31
68912;SHT31;55953;51.650;-0.522;2023-02-15T06:38:21;1.09;84.25
68912;SHT31;55953;51.650;-0.522;2023-02-15T06:40:48;1.13;84.67
68912;SHT31;55953;51.650;-0.522;2023-02-15T06:43:16;1.21;84.51
68912;SHT31;55953;51.650;-0.522;2023-02-15T06:45:44;1.24;84.21
68912;SHT31;55953;51.650;-0.522;2023-02-15T06:48:12;1.27;84.26
68912;SHT31;55953;51.650;-0.522;2023-02-15T06:50:40;1.28;84.13
68912;SHT31;55953;51.650;-0.522;2023-02-15T06:53:08;1.29;84.24
68912;SHT31;55953;51.650;-0.522;2023-02-15T06:55:36;1.34;84.21
68912;SHT31;55953;51.650;-0.522;2023-02-15T06:58:04;1.33;84.05
68912;SHT31;55953;51.650;-0.522;2023-02-15T07:00:32;1.29;84.01
68912;SHT31;55953;51.650;-0.522;2023-02-15T07:03:01;1.32;84.43
68912;SHT31;55953;51.650;-0.522;2023-02-15T07:05:32;1.38;84.34
68912;SHT31;55953;51.650;-0.522;2023-02-15T07:08:03;1.48;84.14
68912;SHT31;55953;51.650;-0.522;2023-02-15T07:10:31;1.53;83.98
68912;SHT31;55953;51.650;-0.522;2023-02-15T07:12:58;1.51;84.16
68912;SHT31;55953;51.650;-0.522;2023-02-15T07:15:26;1.55;84.69
68912;SHT31;55953;51.650;-0.522;2023-02-15T07:17:54;1.51;84.34
68912;SHT31;55953;51.650;-0.522;2023-02-15T07:20:22;1.39;84.11
68912;SHT31;55953;51.650;-0.522;2023-02-15T07:22:51;1.26;84.03
68912;SHT31;55953;51.650;-0.522;2023-02-15T07:25:19;1.28;84.30
68912;SHT31;55953;51.650;-0.522;2023-02-15T07:27:47;1.38;84.45
68912;SHT31;55953;51.650;-0.522;2023-02-15T07:30:16;1.42;84.59
68912;SHT31;55953;51.650;-0.522;2023-02-15T07:32:44;1.51;84.71
68912;SHT31;55953;51.650;-0.522;2023-02-15T07:35:32;1.43;84.26
68912;SHT31;55953;51.650;-0.522;2023-02-15T07:38:01;1.42;84.32
68912;SHT31;55953;51.650;-0.522;2023-02-15T07:40:29;1.47;84.35
68912;SHT31;55953;51.650;-0.522;2023-02-15T07:42:57;1.51;84.53
68912;SHT31;55953;51.650;-0.522;2023-02-15T07:45:26;1.63;84.87
68912;SHT31;55953;51.650;-0.522;2023-02-15T07:47:54;1.73;84.64
68912;SHT31;55953;51.650;-0.522;2023-02-15T07:50:22;1.74;84.39
68912;SHT31;55953;51.650;-0.522;2023-02-15T07:52:50;1.79;84.75
68912;SHT31;55953;51.650;-0.522;2023-02-15T07:55:18;1.92;84.63
68912;SHT31;55953;51.650;-0.522;2023-02-15T07:57:47;1.94;84.28
68912;SHT31;55953;51.650;-0.522;2023-02-15T08:00:17;1.99;84.42
68912;SHT31;55953;51.650;-0.522;2023-02-15T08:02:52;1.92;84.01
68912;SHT31;55953;51.650;-0.522;2023-02-15T08:05:42;1.91;84.06
68912;SHT31;55953;51.650;-0.522;2023-02-15T08:08:12;1.97;84.26
68912;SHT31;55953;51.650;-0.522;2023-02-15T08:13:49;2.22;84.56
68912;SHT31;55953;51.650;-0.522;2023-02-15T08:16:46;2.29;84.40
68912;SHT31;55953;51.650;-0.522;2023-02-15T08:19:27;2.39;84.33
68912;SHT31;55953;51.650;-0.522;2023-02-15T08:21:58;2.52;84.27
68912;SHT31;55953;51.650;-0.522;2023-02-15T08:24:30;2.59;84.00
68912;SHT31;55953;51.650;-0.522;2023-02-15T08:27:07;2.65;83.82
68912;SHT31;55953;51.650;-0.522;2023-02-15T08:29:38;2.67;83.52
68912;SHT31;55953;51.650;-0.522;2023-02-15T08:32:08;2.62;83.41
68912;SHT31;55953;51.650;-0.522;2023-02-15T08:34:40;2.69;83.50
68912;SHT31;55953;51.650;-0.522;2023-02-15T08:37:09;2.78;83.52
68912;SHT31;55953;51.650;-0.522;2023-02-15T08:39:39;2.84;83.46
68912;SHT31;55953;51.650;-0.522;2023-02-15T08:42:06;2.96;83.76
68912;SHT31;55953;51.650;-0.522;2023-02-15T08:44:34;3.18;83.68
68912;SHT31;55953;51.650;-0.522;2023-02-15T08:47:02;3.27;83.35
68912;SHT31;55953;51.650;-0.522;2023-02-15T08:49:31;3.37;83.48
68912;SHT31;55953;51.650;-0.522;2023-02-15T08:51:59;3.42;83.49
68912;SHT31;55953;51.650;-0.522;2023-02-15T08:54:27;3.48;83.74
68912;SHT31;55953;51.650;-0.522;2023-02-15T08:56:55;3.60;84.08
68912;SHT31;55953;51.650;-0.522;2023-02-15T08:59:23;3.71;84.38
68912;SHT31;55953;51.650;-0.522;2023-02-15T09:01:53;3.85;84.79
68912;SHT31;55953;51.650;-0.522;2023-02-15T09:04:21;3.96;84.80
68912;SHT31;55953;51.650;-0.522;2023-02-15T09:06:50;4.10;85.27
68912;SHT31;55953;51.650;-0.522;2023-02-15T09:09:19;4.32;85.75
68912;SHT31;55953;51.650;-0.522;2023-02-15T09:11:48;4.52;86.03
68912;SHT31;55953;51.650;-0.522;2023-02-15T09:14:25;4.71;86.06
68912;SHT31;55953;51.650;-0.522;2023-02-15T09:16:54;4.82;85.99
68912;SHT31;55953;51.650;-0.522;2023-02-15T09:19:22;4.94;86.29
68912;SHT31;55953;51.650;-0.522;2023-02-15T09:21:51;5.07;86.43
68912;SHT31;55953;51.650;-0.522;2023-02-15T09:24:20;5.23;86.47
68912;SHT31;55953;51.650;-0.522;2023-02-15T09:26:49;5.34;86.21
68912;SHT31;55953;51.650;-0.522;2023-02-15T09:29:17;5.46;86.23
68912;SHT31;55953;51.650;-0.522;2023-02-15T09:31:47;5.59;86.10
68912;SHT31;55953;51.650;-0.522;2023-02-15T09:34:18;5.66;85.88
68912;SHT31;55953;51.650;-0.522;2023-02-15T09:36:49;5.72;85.92
68912;SHT31;55953;51.650;-0.522;2023-02-15T09:48:23;6.19;85.86
68912;SHT31;55953;51.650;-0.522;2023-02-15T09:54:34;6.23;85.65
68912;SHT31;55953;51.650;-0.522;2023-02-15T09:57:37;6.24;85.72
68912;SHT31;55953;51.650;-0.522;2023-02-15T10:00:40;6.36;85.92
68912;SHT31;55953;51.650;-0.522;2023-02-15T10:24:54;7.01;85.04
68912;SHT31;55953;51.650;-0.522;2023-02-15T10:27:47;7.07;85.09
68912;SHT31;55953;51.650;-0.522;2023-02-15T10:30:27;7.16;85.15
68912;SHT31;55953;51.650;-0.522;2023-02-15T10:36:31;7.43;85.15
68912;SHT31;55953;51.650;-0.522;2023-02-15T10:39:50;7.63;85.42
68912;SHT31;55953;51.650;-0.522;2023-02-15T10:42:53;7.76;85.22
68912;SHT31;55953;51.650;-0.522;2023-02-15T10:52:07;8.13;84.39
68912;SHT31;55953;51.650;-0.522;2023-02-15T10:54:45;8.27;84.25
68912;SHT31;55953;51.650;-0.522;2023-02-15T10:57:21;8.39;83.81
68912;SHT31;55953;51.650;-0.522;2023-02-15T11:00:13;8.52;83.93
68912;SHT31;55953;51.650;-0.522;2023-02-15T11:08:18;8.81;83.23
68912;SHT31;55953;51.650;-0.522;2023-02-15T11:10:48;8.88;82.96
68912;SHT31;55953;51.650;-0.522;2023-02-15T11:13:22;8.94;82.91
68912;SHT31;55953;51.650;-0.522;2023-02-15T11:15:57;9.01;83.00
68912;SHT31;55953;51.650;-0.522;2023-02-15T11:18:37;9.12;82.90
68912;SHT31;55953;51.650;-0.522;2023-02-15T11:21:17;9.24;82.67
68912;SHT31;55953;51.650;-0.522;2023-02-15T11:24:12;9.31;82.23
68912;SHT31;55953;51.650;-0.522;2023-02-15T11:26:57;9.38;82.01
68912;SHT31;55953;51.650;-0.522;2023-02-15T11:34:47;9.68;81.73
68912;SHT31;55953;51.650;-0.522;2023-02-15T11:41:08;9.97;81.22
68912;SHT31;55953;51.650;-0.522;2023-02-15T11:46:18;10.15;80.67
68912;SHT31;55953;51.650;-0.522;2023-02-15T11:48:49;10.26;80.44
68912;SHT31;55953;51.650;-0.522;2023-02-15T11:51:18;10.38;80.31
68912;SHT31;55953;51.650;-0.522;2023-02-15T11:53:50;10.50;79.95
68912;SHT31;55953;51.650;-0.522;2023-02-15T11:56:20;10.61;79.63
68912;SHT31;55953;51.650;-0.522;2023-02-15T11:59:05;10.70;79.43
68912;SHT31;55953;51.650;-0.522;2023-02-15T12:01:44;10.82;79.07
68912;SHT31;55953;51.650;-0.522;2023-02-15T12:04:21;10.91;78.49
68912;SHT31;55953;51.650;-0.522;2023-02-15T12:06:58;11.00;78.00
68912;SHT31;55953;51.650;-0.522;2023-02-15T12:09:49;11.13;78.16
68912;SHT31;55953;51.650;-0.522;2023-02-15T12:12:39;11.27;77.46
68912;SHT31;55953;51.650;-0.522;2023-02-15T12:15:08;11.38;77.50
68912;SHT31;55953;51.650;-0.522;2023-02-15T12:17:40;11.47;77.04
68912;SHT31;55953;51.650;-0.522;2023-02-15T12:22:46;11.65;76.79
68912;SHT31;55953;51.650;-0.522;2023-02-15T12:26:15;11.79;76.19
68912;SHT31;55953;51.650;-0.522;2023-02-15T12:28:41;11.85;76.22
68912;SHT31;55953;51.650;-0.522;2023-02-15T12:31:20;11.94;75.63
68912;SHT31;55953;51.650;-0.522;2023-02-15T12:33:54;12.06;75.44
68912;SHT31;55953;51.650;-0.522;2023-02-15T12:36:38;12.16;75.42
68912;SHT31;55953;51.650;-0.522;2023-02-15T12:41:44;12.44;73.85
68912;SHT31;55953;51.650;-0.522;2023-02-15T12:44:22;12.57;74.03
68912;SHT31;55953;51.650;-0.522;2023-02-15T12:49:43;12.83;72.24
68912;SHT31;55953;51.650;-0.522;2023-02-15T12:54:45;13.07;72.15
68912;SHT31;55953;51.650;-0.522;2023-02-15T12:57:28;13.19;71.40
68912;SHT31;55953;51.650;-0.522;2023-02-15T13:00:01;13.30;71.96
68912;SHT31;55953;51.650;-0.522;2023-02-15T13:02:44;13.44;71.75
68912;SHT31;55953;51.650;-0.522;2023-02-15T13:08:09;13.70;71.14
68912;SHT31;55953;51.650;-0.522;2023-02-15T13:13:31;13.84;69.99
68912;SHT31;55953;51.650;-0.522;2023-02-15T13:16:13;13.90;70.32
68912;SHT31;55953;51.650;-0.522;2023-02-15T13:18:43;13.97;69.65
68912;SHT31;55953;51.650;-0.522;2023-02-15T13:21:20;13.94;69.46
68912;SHT31;55953;51.650;-0.522;2023-02-15T13:24:01;13.92;67.67
68912;SHT31;55953;51.650;-0.522;2023-02-15T13:26:38;13.92;68.40
68912;SHT31;55953;51.650;-0.522;2023-02-15T13:29:15;13.94;68.48
68912;SHT31;55953;51.650;-0.522;2023-02-15T13:31:51;13.96;67.68
68912;SHT31;55953;51.650;-0.522;2023-02-15T13:34:32;13.97;67.32
68912;SHT31;55953;51.650;-0.522;2023-02-15T13:43:15;13.98;67.07
68912;SHT31;55953;51.650;-0.522;2023-02-15T13:49:09;14.02;67.44
68912;SHT31;55953;51.650;-0.522;2023-02-15T13:54:53;14.02;67.02
68912;SHT31;55953;51.650;-0.522;2023-02-15T14:00:41;14.01;66.68
68912;SHT31;55953;51.650;-0.522;2023-02-15T14:03:24;14.08;66.90
68912;SHT31;55953;51.650;-0.522;2023-02-15T14:18:35;14.24;66.36
68912;SHT31;55953;51.650;-0.522;2023-02-15T14:26:38;14.39;66.31
68912;SHT31;55953;51.650;-0.522;2023-02-15T14:34:52;14.40;64.98
68912;SHT31;55953;51.650;-0.522;2023-02-15T14:49:25;14.34;65.64
68912;SHT31;55953;51.650;-0.522;2023-02-15T14:51:57;14.31;65.74
68912;SHT31;55953;51.650;-0.522;2023-02-15T14:59:43;14.30;66.16
68912;SHT31;55953;51.650;-0.522;2023-02-15T15:08:03;14.31;65.90
68912;SHT31;55953;51.650;-0.522;2023-02-15T15:10:43;14.28;65.95
68912;SHT31;55953;51.650;-0.522;2023-02-15T15:13:51;14.24;65.54
68912;SHT31;55953;51.650;-0.522;2023-02-15T15:16:28;14.19;65.90
68912;SHT31;55953;51.650;-0.522;2023-02-15T15:19:09;14.15;65.89
68912;SHT31;55953;51.650;-0.522;2023-02-15T15:32:51;13.99;66.36
68912;SHT31;55953;51.650;-0.522;2023-02-15T15:35:36;13.90;66.25
68912;SHT31;55953;51.650;-0.522;2023-02-15T15:50:04;13.64;67.13
68912;SHT31;55953;51.650;-0.522;2023-02-15T15:52:43;13.56;67.34
68912;SHT31;55953;51.650;-0.522;2023-02-15T15:55:19;13.53;67.36
68912;SHT31;55953;51.650;-0.522;2023-02-15T15:57:52;13.48;67.29
68912;SHT31;55953;51.650;-0.522;2023-02-15T16:03:15;13.25;67.48
68912;SHT31;55953;51.650;-0.522;2023-02-15T16:05:50;13.16;67.86
68912;SHT31;55953;51.650;-0.522;2023-02-15T16:08:30;13.07;68.18
68912;SHT31;55953;51.650;-0.522;2023-02-15T16:11:07;12.98;68.10
68912;SHT31;55953;51.650;-0.522;2023-02-15T16:13:41;12.87;68.28
68912;SHT31;55953;51.650;-0.522;2023-02-15T16:16:11;12.82;68.22
68912;SHT31;55953;51.650;-0.522;2023-02-15T16:18:46;12.74;68.21
68912;SHT31;55953;51.650;-0.522;2023-02-15T16:21:17;12.68;68.40
68912;SHT31;55953;51.650;-0.522;2023-02-15T16:23:56;12.66;68.59
68912;SHT31;55953;51.650;-0.522;2023-02-15T16:29:29;12.57;69.04
68912;SHT31;55953;51.650;-0.522;2023-02-15T16:32:17;12.53;69.13
68912;SHT31;55953;51.650;-0.522;2023-02-15T16:34:58;12.53;69.05
68912;SHT31;55953;51.650;-0.522;2023-02-15T16:37:33;12.51;69.08
68912;SHT31;55953;51.650;-0.522;2023-02-15T16:40:02;12.47;69.03
68912;SHT31;55953;51.650;-0.522;2023-02-15T16:42:30;12.45;69.13
68912;SHT31;55953;51.650;-0.522;2023-02-15T16:45:01;12.46;69.14
68912;SHT31;55953;51.650;-0.522;2023-02-15T16:47:36;12.41;69.05
68912;SHT31;55953;51.650;-0.522;2023-02-15T16:50:16;12.35;69.09
68912;SHT31;55953;51.650;-0.522;2023-02-15T16:52:51;12.29;69.19
68912;SHT31;55953;51.650;-0.522;2023-02-15T16:55:20;12.24;69.29
68912;SHT31;55953;51.650;-0.522;2023-02-15T16:57:54;12.25;69.28
68912;SHT31;55953;51.650;-0.522;2023-02-15T17:00:29;12.20;69.14
68912;SHT31;55953;51.650;-0.522;2023-02-15T17:05:44;12.10;69.00
68912;SHT31;55953;51.650;-0.522;2023-02-15T17:08:19;12.02;69.13
68912;SHT31;55953;51.650;-0.522;2023-02-15T17:11:03;11.96;69.03
68912;SHT31;55953;51.650;-0.522;2023-02-15T17:13:37;11.94;69.20
68912;SHT31;55953;51.650;-0.522;2023-02-15T17:16:20;11.92;69.33
68912;SHT31;55953;51.650;-0.522;2023-02-15T17:18:55;11.86;69.39
68912;SHT31;55953;51.650;-0.522;2023-02-15T17:21:32;11.85;69.61
68912;SHT31;55953;51.650;-0.522;2023-02-15T17:24:13;11.81;69.40
68912;SHT31;55953;51.650;-0.522;2023-02-15T17:26:53;11.77;69.50
68912;SHT31;55953;51.650;-0.522;2023-02-15T17:32:09;11.75;69.64
68912;SHT31;55953;51.650;-0.522;2023-02-15T17:37:29;11.73;69.70
68912;SHT31;55953;51.650;-0.522;2023-02-15T17:40:16;11.71;69.70
68912;SHT31;55953;51.650;-0.522;2023-02-15T17:42:55;11.66;69.82
68912;SHT31;55953;51.650;-0.522;2023-02-15T17:45:38;11.62;69.90
68912;SHT31;55953;51.650;-0.522;2023-02-15T17:48:22;11.58;70.04
68912;SHT31;55953;51.650;-0.522;2023-02-15T17:50:58;11.56;70.08
68912;SHT31;55953;51.650;-0.522;2023-02-15T17:53:29;11.55;70.18
68912;SHT31;55953;51.650;-0.522;2023-02-15T17:55:58;11.52;71.64
68912;SHT31;55953;51.650;-0.522;2023-02-15T17:58:26;11.48;72.46
68912;SHT31;55953;51.650;-0.522;2023-02-15T18:00:54;11.46;72.64
68912;SHT31;55953;51.650;-0.522;2023-02-15T18:03:46;11.45;71.99
68912;SHT31;55953;51.650;-0.522;2023-02-15T18:06:37;11.45;71.33
68912;SHT31;55953;51.650;-0.522;2023-02-15T18:09:27;11.44;71.10
68912;SHT31;55953;51.650;-0.522;2023-02-15T18:12:21;11.42;71.24
68912;SHT31;55953;51.650;-0.522;2023-02-15T18:14:52;11.39;71.47
68912;SHT31;55953;51.650;-0.522;2023-02-15T18:17:24;11.35;71.78
68912;SHT31;55953;51.650;-0.522;2023-02-15T18:19:55;11.31;72.22
68912;SHT31;55953;51.650;-0.522;2023-02-15T18:22:23;11.30;72.63
68912;SHT31;55953;51.650;-0.522;2023-02-15T18:24:51;11.30;72.90
68912;SHT31;55953;51.650;-0.522;2023-02-15T18:27:19;11.29;73.27
68912;SHT31;55953;51.650;-0.522;2023-02-15T18:29:47;11.25;73.84
68912;SHT31;55953;51.650;-0.522;2023-02-15T18:32:20;11.22;74.14
68912;SHT31;55953;51.650;-0.522;2023-02-15T18:34:57;11.22;74.30
68912;SHT31;55953;51.650;-0.522;2023-02-15T18:37:26;11.23;74.44
68912;SHT31;55953;51.650;-0.522;2023-02-15T18:39:59;11.23;74.57
68912;SHT31;55953;51.650;-0.522;2023-02-15T18:42:31;11.24;74.70
68912;SHT31;55953;51.650;-0.522;2023-02-15T18:45:13;11.23;75.12
68912;SHT31;55953;51.650;-0.522;2023-02-15T18:48:07;11.20;75.62
68912;SHT31;55953;51.650;-0.522;2023-02-15T18:50:36;11.17;75.74
68912;SHT31;55953;51.650;-0.522;2023-02-15T18:53:05;11.14;75.82
68912;SHT31;55953;51.650;-0.522;2023-02-15T18:55:42;11.13;76.16
68912;SHT31;55953;51.650;-0.522;2023-02-15T18:58:15;11.10;76.23
68912;SHT31;55953;51.650;-0.522;2023-02-15T19:00:47;11.11;76.57
68912;SHT31;55953;51.650;-0.522;2023-02-15T19:03:16;11.12;76.76
68912;SHT31;55953;51.650;-0.522;2023-02-15T19:05:45;11.15;76.72
68912;SHT31;55953;51.650;-0.522;2023-02-15T19:08:15;11.14;76.97
68912;SHT31;55953;51.650;-0.522;2023-02-15T19:10:51;11.12;77.37
68912;SHT31;55953;51.650;-0.522;2023-02-15T19:13:18;11.11;77.59
68912;SHT31;55953;51.650;-0.522;2023-02-15T19:15:46;11.11;77.77
68912;SHT31;55953;51.650;-0.522;2023-02-15T19:18:14;11.10;77.99
68912;SHT31;55953;51.650;-0.522;2023-02-15T19:20:44;11.07;78.33
68912;SHT31;55953;51.650;-0.522;2023-02-15T19:23:14;11.08;78.39
68912;SHT31;55953;51.650;-0.522;2023-02-15T19:25:48;11.04;78.71
68912;SHT31;55953;51.650;-0.522;2023-02-15T19:28:20;11.05;78.68
68912;SHT31;55953;51.650;-0.522;2023-02-15T19:30:59;11.03;78.90
68912;SHT31;55953;51.650;-0.522;2023-02-15T19:33:27;11.03;79.03
68912;SHT31;55953;51.650;-0.522;2023-02-15T19:35:56;11.03;79.14
68912;SHT31;55953;51.650;-0.522;2023-02-15T19:38:26;11.02;79.32
68912;SHT31;55953;51.650;-0.522;2023-02-15T19:41:05;11.01;79.36
68912;SHT31;55953;51.650;-0.522;2023-02-15T19:43:36;11.00;79.47
68912;SHT31;55953;51.650;-0.522;2023-02-15T19:46:05;10.99;79.40
68912;SHT31;55953;51.650;-0.522;2023-02-15T19:48:34;10.97;79.62
68912;SHT31;55953;51.650;-0.522;2023-02-15T19:51:03;10.97;79.75
68912;SHT31;55953;51.650;-0.522;2023-02-15T19:53:32;10.95;79.93
68912;SHT31;55953;51.650;-0.522;2023-02-15T19:56:02;10.92;80.05